Time;durP1;ratioP1;P1;durP2;ratioP2;P2;SDS_P1;SDS_P2;PMS_P1;PMS_P2;Temp;Humidity;BMP_temperature;BMP_pressure;BME280_temperature;BME280_humidity;BME280_pressure;Samples;Min_cycle;Max_cycle;Signal;HPM_P1;HPM_P2
2021/04/25 00:00:28;;;;;;;11.60;9.30;;;7.20;99.90;;;;;;5072363;28;20249;-78
2021/04/25 00:02:54;;;;;;;11.23;9.83;;;7.10;99.90;;;;;;5073503;28;20202;-77
2021/04/25 00:05:21;;;;;;;11.27;8.80;;;7.10;99.90;;;;;;5063318;28;20204;-78
2021/04/25 00:07:47;;;;;;;12.23;9.07;;;6.90;99.90;;;;;;5061661;28;20713;-78
2021/04/25 00:10:16;;;;;;;10.30;9.30;;;6.90;99.90;;;;;;5073805;28;20227;-78
2021/04/25 00:12:43;;;;;;;15.73;9.53;;;6.90;99.90;;;;;;5073784;28;20194;-77
2021/04/25 00:15:12;;;;;;;10.30;8.80;;;6.80;99.90;;;;;;5072922;28;20195;-78
2021/04/25 00:17:38;;;;;;;9.50;8.50;;;6.80;99.90;;;;;;5077373;28;20241;-78
2021/04/25 00:20:06;;;;;;;10.83;9.13;;;6.80;99.90;;;;;;5069155;28;20264;-78
2021/04/25 00:22:33;;;;;;;10.13;8.83;;;6.80;99.90;;;;;;5077207;28;20207;-77
2021/04/25 00:25:00;;;;;;;10.93;8.87;;;6.80;99.90;;;;;;5073519;28;20230;-78
2021/04/25 00:27:26;;;;;;;9.57;8.63;;;6.70;99.90;;;;;;5077558;28;20258;-78
2021/04/25 00:29:53;;;;;;;10.03;8.17;;;6.60;99.90;;;;;;5068588;28;20222;-78
2021/04/25 00:32:20;;;;;;;10.20;9.20;;;6.60;99.90;;;;;;5077251;28;20195;-78
2021/04/25 00:34:46;;;;;;;9.80;8.80;;;6.50;99.90;;;;;;5067962;28;20226;-78
2021/04/25 00:37:13;;;;;;;13.27;9.10;;;6.40;99.90;;;;;;5073038;28;20215;-76
2021/04/25 00:39:39;;;;;;;10.90;8.97;;;6.30;99.90;;;;;;5070076;28;20207;-77
2021/04/25 00:42:06;;;;;;;11.37;9.77;;;6.30;99.90;;;;;;5075687;28;20756;-77
2021/04/25 00:44:32;;;;;;;10.40;8.87;;;6.20;99.90;;;;;;5077368;28;20190;-77
2021/04/25 00:46:59;;;;;;;9.83;8.77;;;6.20;99.90;;;;;;5075397;28;21240;-78
2021/04/25 00:49:27;;;;;;;10.03;9.03;;;6.20;99.90;;;;;;5075660;28;20211;-78
2021/04/25 00:51:53;;;;;;;10.73;9.10;;;6.20;99.90;;;;;;5076600;28;20232;-78
2021/04/25 00:54:19;;;;;;;10.50;9.50;;;6.20;99.90;;;;;;5077449;28;20198;-78
2021/04/25 00:56:46;;;;;;;10.00;9.00;;;6.20;99.90;;;;;;5068146;28;20203;-78
2021/04/25 00:59:13;;;;;;;10.37;9.20;;;6.10;99.90;;;;;;5077061;28;20224;-77
2021/04/25 01:01:39;;;;;;;11.13;8.93;;;6.10;99.90;;;;;;5075129;28;20699;-78
2021/04/25 01:04:07;;;;;;;12.40;9.13;;;6.10;99.90;;;;;;5076476;28;20198;-77
2021/04/25 01:06:33;;;;;;;10.00;9.10;;;6.00;99.90;;;;;;5075895;28;20223;-78
2021/04/25 01:08:59;;;;;;;10.33;9.33;;;6.00;99.90;;;;;;5076850;28;20199;-78
2021/04/25 01:11:26;;;;;;;9.63;8.37;;;6.00;99.90;;;;;;5064815;28;20586;-76
2021/04/25 01:13:52;;;;;;;11.07;9.00;;;6.00;99.90;;;;;;5074213;28;20205;-78
2021/04/25 01:16:19;;;;;;;10.50;9.20;;;5.90;99.90;;;;;;5075674;28;20195;-78
2021/04/25 01:18:46;;;;;;;9.90;8.73;;;5.90;99.90;;;;;;5076790;28;20202;-78
2021/04/25 01:21:13;;;;;;;12.23;8.63;;;5.90;99.90;;;;;;5076387;28;20210;-77
2021/04/25 01:23:39;;;;;;;9.57;8.57;;;5.90;99.90;;;;;;5075266;28;20679;-77
2021/04/25 01:26:06;;;;;;;9.93;8.93;;;6.00;99.90;;;;;;5076537;28;20203;-78
2021/04/25 01:28:33;;;;;;;9.13;8.27;;;6.00;99.90;;;;;;5076992;28;20207;-78
2021/04/25 01:30:59;;;;;;;10.03;7.67;;;6.00;99.90;;;;;;5075216;28;20227;-78
2021/04/25 01:33:28;;;;;;;10.10;8.80;;;6.00;99.90;;;;;;5075212;28;20647;-78
2021/04/25 01:35:54;;;;;;;9.37;8.27;;;6.00;99.90;;;;;;5076225;28;20199;-77
2021/04/25 01:38:21;;;;;;;8.57;7.77;;;5.90;99.90;;;;;;5075939;28;20202;-78
2021/04/25 01:40:48;;;;;;;8.93;8.03;;;5.90;99.90;;;;;;5075924;28;20775;-78
2021/04/25 01:43:14;;;;;;;9.83;8.27;;;5.80;99.90;;;;;;5075668;28;20194;-78
2021/04/25 01:45:41;;;;;;;9.53;8.60;;;5.70;99.90;;;;;;5075252;28;20208;-78
2021/04/25 01:48:09;;;;;;;11.20;8.87;;;5.70;99.90;;;;;;5070759;28;20195;-78
2021/04/25 01:50:36;;;;;;;9.73;8.73;;;5.70;99.90;;;;;;5075044;28;20226;-78
2021/04/25 01:53:02;;;;;;;10.03;8.97;;;5.70;99.90;;;;;;5075324;28;20205;-78
2021/04/25 01:55:32;;;;;;;9.73;8.73;;;5.60;99.90;;;;;;5070621;28;20242;-78
2021/04/25 01:57:59;;;;;;;9.93;8.83;;;5.70;99.90;;;;;;5075320;28;20202;-78
2021/04/25 02:00:30;;;;;;;9.47;8.47;;;5.60;99.90;;;;;;5075294;28;20280;-78
2021/04/25 02:02:57;;;;;;;10.93;8.53;;;5.60;99.90;;;;;;5075100;28;20244;-76
2021/04/25 02:05:24;;;;;;;9.50;8.60;;;5.60;99.90;;;;;;5073710;28;20194;-78
2021/04/25 02:07:51;;;;;;;10.13;9.17;;;5.50;99.90;;;;;;5075361;28;20702;-78
2021/04/25 02:10:18;;;;;;;10.43;9.50;;;5.50;99.90;;;;;;5074154;28;20875;-78
2021/04/25 02:12:46;;;;;;;9.63;8.73;;;5.50;99.90;;;;;;5075604;28;20698;-78
2021/04/25 02:15:14;;;;;;;10.20;9.03;;;5.50;99.90;;;;;;5075236;28;20194;-77
2021/04/25 02:17:42;;;;;;;10.13;9.07;;;5.40;99.90;;;;;;5074273;28;20194;-77
2021/04/25 02:20:10;;;;;;;10.10;9.03;;;5.40;99.90;;;;;;5073479;28;20468;-78
2021/04/25 02:22:36;;;;;;;9.57;8.57;;;5.40;99.90;;;;;;5073407;28;20198;-78
2021/04/25 02:25:04;;;;;;;10.43;9.27;;;5.40;99.90;;;;;;5075021;28;20243;-77
2021/04/25 02:27:31;;;;;;;10.13;9.10;;;5.40;99.90;;;;;;5075045;28;20484;-78
2021/04/25 02:29:59;;;;;;;9.30;8.40;;;5.40;99.90;;;;;;5067024;28;20218;-77
2021/04/25 02:32:25;;;;;;;10.30;8.50;;;5.40;99.90;;;;;;5069233;28;20209;-77
2021/04/25 02:34:51;;;;;;;9.43;8.50;;;5.40;99.90;;;;;;5073669;28;20694;-78
2021/04/25 02:37:18;;;;;;;11.50;9.10;;;5.30;99.90;;;;;;5073390;28;20205;-77
2021/04/25 02:39:44;;;;;;;10.83;8.70;;;5.20;99.90;;;;;;5072631;28;20839;-78
2021/04/25 02:42:11;;;;;;;11.10;8.87;;;5.20;99.90;;;;;;5072982;28;20681;-78
2021/04/25 02:44:37;;;;;;;9.27;8.30;;;5.10;99.90;;;;;;5073078;28;20226;-77
2021/04/25 02:47:04;;;;;;;8.67;7.87;;;5.10;99.90;;;;;;5073542;28;20541;-77
2021/04/25 02:49:31;;;;;;;9.50;8.50;;;5.00;99.90;;;;;;5070959;28;20449;-77
2021/04/25 02:51:57;;;;;;;9.03;8.13;;;4.90;99.90;;;;;;5082670;22;20242;-81
2021/04/25 02:54:23;;;;;;;9.73;8.33;;;4.90;99.90;;;;;;5056849;28;20470;-82
2021/04/25 02:56:50;;;;;;;10.87;8.80;;;4.80;99.90;;;;;;5062960;28;20457;-75
2021/04/25 02:59:16;;;;;;;11.27;9.63;;;4.80;99.90;;;;;;5046739;28;20465;-80
2021/04/25 03:01:43;;;;;;;9.53;8.63;;;4.80;99.90;;;;;;5059326;28;20290;-79
2021/04/25 03:04:10;;;;;;;11.77;8.77;;;4.90;99.90;;;;;;5072253;28;20464;-79
2021/04/25 03:06:36;;;;;;;12.33;9.87;;;4.80;99.90;;;;;;5070609;28;20483;-79
2021/04/25 03:09:03;;;;;;;9.87;8.87;;;4.80;99.90;;;;;;5067017;28;20453;-77
2021/04/25 03:11:29;;;;;;;10.63;9.10;;;4.80;99.90;;;;;;5071602;28;20596;-80
2021/04/25 03:13:56;;;;;;;10.30;9.30;;;4.80;99.90;;;;;;5063929;28;20448;-80
2021/04/25 03:16:22;;;;;;;9.27;8.30;;;4.90;99.90;;;;;;5071789;28;20450;-79
2021/04/25 03:18:48;;;;;;;9.40;8.60;;;4.90;99.90;;;;;;5053577;28;20438;-80
2021/04/25 03:21:15;;;;;;;9.13;8.23;;;4.90;99.90;;;;;;5051917;28;20897;-79
2021/04/25 03:23:42;;;;;;;8.73;7.83;;;4.90;99.90;;;;;;5055536;28;20433;-79
2021/04/25 03:26:08;;;;;;;9.50;8.50;;;4.90;99.90;;;;;;5057180;28;21050;-78
2021/04/25 03:28:35;;;;;;;11.17;9.53;;;4.90;99.90;;;;;;5054004;28;20966;-78
2021/04/25 03:31:01;;;;;;;11.03;9.40;;;4.80;99.90;;;;;;5051464;28;20904;-78
2021/04/25 03:33:27;;;;;;;11.33;8.97;;;4.80;99.90;;;;;;5056428;28;20875;-79
2021/04/25 03:35:54;;;;;;;11.37;8.53;;;4.80;99.90;;;;;;5052793;28;20966;-79
2021/04/25 03:38:21;;;;;;;12.07;8.40;;;4.80;99.90;;;;;;5053152;28;20457;-79
2021/04/25 03:40:47;;;;;;;10.73;8.20;;;4.70;99.90;;;;;;5054248;28;20471;-80
2021/04/25 03:43:13;;;;;;;11.07;8.70;;;4.70;99.90;;;;;;5056483;28;20954;-79
2021/04/25 03:45:40;;;;;;;9.83;8.70;;;4.70;99.90;;;;;;5054042;28;20203;-78
2021/04/25 03:48:06;;;;;;;9.50;8.50;;;4.70;99.90;;;;;;5064482;28;20465;-79
2021/04/25 03:50:33;;;;;;;11.60;8.77;;;4.70;99.90;;;;;;5053728;28;20284;-81
2021/04/25 03:52:59;;;;;;;9.40;7.70;;;4.70;99.90;;;;;;5057523;28;20448;-78
2021/04/25 03:55:27;;;;;;;11.23;8.20;;;4.70;99.90;;;;;;5056550;28;20456;-79
2021/04/25 03:57:53;;;;;;;9.43;8.40;;;4.70;99.90;;;;;;5059059;28;20961;-79
2021/04/25 04:00:20;;;;;;;10.63;8.70;;;4.70;99.90;;;;;;5055817;28;20942;-78
2021/04/25 04:02:47;;;;;;;12.33;8.73;;;4.80;99.90;;;;;;5057136;28;20455;-79
2021/04/25 04:05:14;;;;;;;10.83;8.20;;;4.80;99.90;;;;;;5062265;28;20472;-79
2021/04/25 04:07:41;;;;;;;10.37;9.23;;;4.80;99.90;;;;;;5073564;28;20483;-78
2021/04/25 04:10:08;;;;;;;9.40;7.77;;;4.80;99.90;;;;;;5075392;28;20440;-79
2021/04/25 04:12:35;;;;;;;10.37;8.37;;;4.80;99.90;;;;;;5074298;28;20920;-79
2021/04/25 04:15:02;;;;;;;9.33;7.93;;;4.70;99.90;;;;;;5074943;28;20952;-79
2021/04/25 04:17:28;;;;;;;12.80;9.23;;;4.70;99.90;;;;;;5073434;28;20455;-79
2021/04/25 04:19:55;;;;;;;11.43;9.33;;;4.70;99.90;;;;;;5072805;28;20475;-79
2021/04/25 04:22:21;;;;;;;10.17;8.60;;;4.70;99.90;;;;;;5075077;28;20452;-79
2021/04/25 04:24:47;;;;;;;9.23;8.33;;;4.70;99.90;;;;;;5069994;28;20449;-79
2021/04/25 04:27:14;;;;;;;11.93;8.50;;;4.80;99.90;;;;;;5081441;28;20473;-81
2021/04/25 04:29:41;;;;;;;9.00;8.17;;;4.80;99.90;;;;;;5066884;28;20972;-79
2021/04/25 04:32:07;;;;;;;12.63;9.43;;;4.90;99.90;;;;;;5068359;28;20687;-80
2021/04/25 04:34:33;;;;;;;10.87;8.13;;;4.90;99.90;;;;;;5064534;28;20226;-79
2021/04/25 04:37:00;;;;;;;8.63;7.83;;;4.90;99.90;;;;;;5072365;28;20429;-79
2021/04/25 04:39:26;;;;;;;9.13;8.17;;;5.00;99.90;;;;;;5069287;28;20449;-78
2021/04/25 04:41:52;;;;;;;10.67;8.80;;;5.10;99.90;;;;;;5067335;28;20221;-78
2021/04/25 04:44:19;;;;;;;9.07;8.17;;;5.10;99.90;;;;;;5075265;28;20443;-79
2021/04/25 04:46:46;;;;;;;9.03;8.13;;;5.20;99.90;;;;;;5073244;28;20471;-78
2021/04/25 04:49:13;;;;;;;10.73;8.77;;;5.20;99.90;;;;;;5082243;28;20446;-79
2021/04/25 04:51:40;;;;;;;11.37;9.00;;;5.20;99.90;;;;;;5073094;28;20230;-78
2021/04/25 04:54:06;;;;;;;11.93;9.17;;;5.30;99.90;;;;;;5082895;28;20437;-79
2021/04/25 04:56:33;;;;;;;9.53;8.57;;;5.40;99.90;;;;;;5068006;28;20203;-78
2021/04/25 04:59:02;;;;;;;11.23;9.17;;;5.40;99.90;;;;;;5070390;28;20199;-80
2021/04/25 05:01:28;;;;;;;10.37;9.27;;;5.50;99.90;;;;;;5063490;28;20739;-80
2021/04/25 05:03:55;;;;;;;9.80;8.80;;;5.60;99.90;;;;;;5085425;28;20203;-78
2021/04/25 05:06:22;;;;;;;11.37;9.30;;;5.80;99.90;;;;;;5074243;28;20211;-77
2021/04/25 05:08:48;;;;;;;10.83;9.00;;;6.20;99.90;;;;;;5064795;28;20676;-77
2021/04/25 05:11:14;;;;;;;10.27;7.27;;;6.60;99.90;;;;;;5066614;28;20219;-77
2021/04/25 05:13:41;;;;;;;9.13;7.90;;;7.10;99.90;;;;;;5074306;28;20225;-80
2021/04/25 05:16:07;;;;;;;11.23;6.93;;;7.50;99.90;;;;;;5071877;28;20183;-77
2021/04/25 05:18:33;;;;;;;10.87;8.87;;;7.90;99.90;;;;;;5071361;28;20206;-76
2021/04/25 05:21:01;;;;;;;10.17;8.57;;;8.00;99.90;;;;;;5066784;28;20790;-78
2021/04/25 05:23:27;;;;;;;12.10;7.43;;;8.30;99.90;;;;;;5072226;28;20200;-78
2021/04/25 05:25:53;;;;;;;8.77;7.97;;;8.50;99.90;;;;;;5066372;28;20201;-78
2021/04/25 05:28:19;;;;;;;11.10;6.90;;;8.90;99.90;;;;;;5064249;28;20197;-79
2021/04/25 05:30:46;;;;;;;12.23;7.23;;;9.30;99.90;;;;;;5064906;28;20233;-78
2021/04/25 05:33:12;;;;;;;8.53;7.37;;;9.40;99.90;;;;;;5062551;28;20614;-79
2021/04/25 05:35:38;;;;;;;10.47;7.37;;;9.60;99.90;;;;;;5067918;28;20187;-78
2021/04/25 05:38:06;;;;;;;10.07;6.60;;;9.70;99.90;;;;;;5061600;28;20194;-79
2021/04/25 05:40:32;;;;;;;8.50;6.50;;;9.90;99.90;;;;;;5064929;28;20639;-79
2021/04/25 05:42:58;;;;;;;8.93;5.57;;;10.10;99.90;;;;;;5071539;28;20579;-79
2021/04/25 05:45:25;;;;;;;7.20;5.50;;;10.20;99.90;;;;;;5073455;28;20190;-79
2021/04/25 05:47:53;;;;;;;8.10;5.87;;;10.30;99.90;;;;;;5070054;28;20593;-79
2021/04/25 05:50:21;;;;;;;11.63;6.67;;;10.30;99.90;;;;;;5072633;28;20218;-79
2021/04/25 05:52:47;;;;;;;7.10;6.20;;;10.30;99.90;;;;;;5071657;28;20751;-79
2021/04/25 05:55:15;;;;;;;9.10;6.80;;;10.40;99.90;;;;;;5073428;28;20194;-79
2021/04/25 05:57:42;;;;;;;8.20;6.80;;;10.30;99.90;;;;;;5072290;28;20612;-79
2021/04/25 06:00:12;;;;;;;12.57;7.23;;;10.20;99.90;;;;;;5065165;28;20199;-79
2021/04/25 06:02:38;;;;;;;7.50;6.63;;;10.20;99.90;;;;;;5064898;28;20225;-79
2021/04/25 06:05:05;;;;;;;8.13;6.47;;;10.10;99.90;;;;;;5062753;28;20256;-79
2021/04/25 06:07:32;;;;;;;8.03;6.57;;;10.20;99.90;;;;;;5072689;28;20206;-79
2021/04/25 06:09:58;;;;;;;7.60;6.80;;;10.50;99.90;;;;;;5061523;28;20199;-79
2021/04/25 06:12:25;;;;;;;7.97;6.93;;;10.70;99.90;;;;;;5068419;28;20226;-79
2021/04/25 06:14:52;;;;;;;8.90;7.83;;;10.90;99.90;;;;;;5071103;28;20632;-79
2021/04/25 06:17:18;;;;;;;8.47;7.50;;;11.10;99.90;;;;;;5072780;28;20206;-79
2021/04/25 06:19:44;;;;;;;8.60;7.70;;;11.30;99.90;;;;;;5072584;28;20201;-78
2021/04/25 06:22:13;;;;;;;10.33;7.47;;;11.30;99.90;;;;;;5072275;28;20214;-79
2021/04/25 06:24:40;;;;;;;8.70;7.00;;;11.40;99.90;;;;;;5064386;28;20230;-79
2021/04/25 06:27:07;;;;;;;9.63;7.47;;;11.30;99.90;;;;;;5079052;28;20313;-79
2021/04/25 06:29:34;;;;;;;10.57;7.60;;;11.10;99.90;;;;;;5066742;28;20233;-79
2021/04/25 06:32:00;;;;;;;10.67;7.40;;;11.00;99.90;;;;;;5065898;28;20214;-79
2021/04/25 06:34:26;;;;;;;10.70;8.40;;;11.20;99.90;;;;;;5072647;28;20572;-79
2021/04/25 06:36:53;;;;;;;10.17;8.77;;;11.00;99.90;;;;;;5067668;28;20184;-80
2021/04/25 06:39:19;;;;;;;9.33;8.43;;;11.10;99.90;;;;;;5073065;28;20207;-78
2021/04/25 06:41:45;;;;;;;11.03;8.63;;;11.10;99.90;;;;;;5071627;28;20230;-77
2021/04/25 06:44:12;;;;;;;9.73;8.70;;;11.20;99.90;;;;;;5068820;28;20265;-78
2021/04/25 06:46:39;;;;;;;9.40;8.50;;;11.30;99.90;;;;;;5078866;28;20638;-78
2021/04/25 06:49:05;;;;;;;10.20;8.60;;;11.60;99.90;;;;;;5065124;28;20191;-77
2021/04/25 06:51:32;;;;;;;10.03;8.87;;;11.80;99.90;;;;;;5071239;28;20219;-78
2021/04/25 06:53:58;;;;;;;16.33;9.33;;;11.80;99.90;;;;;;5064664;28;20205;-78
2021/04/25 06:56:25;;;;;;;11.60;9.50;;;11.70;99.90;;;;;;5066778;28;20198;-77
2021/04/25 06:58:51;;;;;;;13.53;8.50;;;11.60;99.90;;;;;;5082877;28;20205;-78
2021/04/25 07:01:17;;;;;;;11.93;7.60;;;11.50;99.90;;;;;;5073135;28;20658;-77
2021/04/25 07:03:44;;;;;;;12.47;7.53;;;11.60;99.90;;;;;;5073733;28;20198;-78
2021/04/25 07:06:11;;;;;;;9.70;7.43;;;11.90;99.90;;;;;;5073124;28;20187;-78
2021/04/25 07:08:37;;;;;;;8.93;6.07;;;12.10;99.90;;;;;;5073695;28;20258;-78
2021/04/25 07:11:04;;;;;;;7.47;5.17;;;12.20;99.90;;;;;;5065302;28;20206;-78
2021/04/25 07:13:31;;;;;;;11.53;6.93;;;12.40;99.90;;;;;;5072254;28;20205;-78
2021/04/25 07:15:57;;;;;;;9.83;6.40;;;12.30;99.90;;;;;;5072978;28;20204;-78
2021/04/25 07:18:23;;;;;;;8.47;6.93;;;12.40;99.90;;;;;;5071968;28;20196;-79
2021/04/25 07:20:52;;;;;;;21.93;10.03;;;12.30;99.90;;;;;;5083824;28;20736;-78
2021/04/25 07:23:19;;;;;;;10.00;9.00;;;12.70;99.90;;;;;;5065026;28;20296;-79
2021/04/25 07:25:46;;;;;;;11.70;9.43;;;13.10;99.90;;;;;;5072556;28;20198;-79
2021/04/25 07:28:12;;;;;;;15.60;10.10;;;13.60;99.90;;;;;;5068660;28;20218;-79
2021/04/25 07:30:39;;;;;;;11.20;10.00;;;13.80;99.90;;;;;;5071049;28;20219;-81
2021/04/25 07:33:05;;;;;;;11.03;9.33;;;14.20;99.90;;;;;;5071175;28;20244;-79
2021/04/25 07:35:32;;;;;;;12.13;10.40;;;14.50;99.90;;;;;;5061164;28;20203;-79
2021/04/25 07:37:59;;;;;;;14.97;11.00;;;14.50;99.90;;;;;;5071292;28;20194;-79
2021/04/25 07:40:26;;;;;;;13.23;10.60;;;14.60;99.90;;;;;;5060713;28;20794;-79
2021/04/25 07:42:52;;;;;;;11.87;10.00;;;14.80;99.90;;;;;;5061467;28;20195;-80
2021/04/25 07:45:19;;;;;;;16.50;11.43;;;14.90;99.90;;;;;;5062499;28;20202;-77
2021/04/25 07:47:45;;;;;;;15.83;8.57;;;15.00;99.90;;;;;;5062338;28;20215;-78
2021/04/25 07:50:14;;;;;;;11.80;10.47;;;14.80;99.90;;;;;;5070701;28;20196;-78
2021/04/25 07:52:40;;;;;;;10.60;9.57;;;15.10;99.90;;;;;;5070965;28;20198;-81
2021/04/25 08:29:09;;;;;;;13.33;10.83;;;16.90;97.10;;;;;;4764267;29;20667;-80
2021/04/25 08:31:35;;;;;;;11.43;10.33;;;16.80;97.30;;;;;;4903056;28;20236;-80
2021/04/25 08:34:05;;;;;;;15.37;11.03;;;16.40;96.00;;;;;;5041575;28;20215;-82
2021/04/25 08:36:34;;;;;;;13.40;10.50;;;16.20;97.10;;;;;;5061038;28;20228;-81
2021/04/25 08:39:01;;;;;;;12.53;10.43;;;16.50;97.10;;;;;;5071086;28;20206;-79
2021/04/25 08:41:29;;;;;;;12.57;11.00;;;16.90;97.90;;;;;;5068804;28;20233;-81
2021/04/25 08:43:57;;;;;;;12.13;10.90;;;16.90;96.70;;;;;;5060865;28;20220;-81
2021/04/25 08:46:27;;;;;;;12.83;10.80;;;16.90;97.50;;;;;;5063756;28;20200;-80
2021/04/25 08:48:54;;;;;;;15.87;11.07;;;17.20;96.60;;;;;;5066145;28;20230;-80
2021/04/25 08:51:21;;;;;;;14.27;11.57;;;17.50;96.70;;;;;;5092757;22;20233;-79
2021/04/25 08:53:49;;;;;;;13.23;11.23;;;17.50;96.00;;;;;;5072788;28;20269;-79
2021/04/25 08:56:16;;;;;;;13.90;11.97;;;17.60;94.80;;;;;;5066224;28;20624;-79
2021/04/25 08:58:43;;;;;;;15.53;13.50;;;17.30;95.20;;;;;;5072642;28;20194;-79
2021/04/25 09:01:11;;;;;;;17.47;12.23;;;17.40;94.20;;;;;;5057127;28;20241;-78
2021/04/25 09:03:39;;;;;;;13.23;11.83;;;17.10;95.00;;;;;;5056889;28;20260;-78
2021/04/25 09:06:10;;;;;;;14.63;11.57;;;17.40;95.70;;;;;;5055079;28;20215;-78
2021/04/25 09:08:48;;;;;;;15.20;10.97;;;17.10;94.90;;;;;;5053655;28;20216;-79
2021/04/25 09:11:29;;;;;;;13.80;11.23;;;17.30;94.50;;;;;;5050027;28;20576;-78
2021/04/25 09:14:20;;;;;;;11.60;10.50;;;17.40;94.70;;;;;;5051797;28;20210;-79
2021/04/25 09:16:58;;;;;;;11.53;9.40;;;17.80;94.40;;;;;;5048588;28;20203;-78
2021/04/25 09:19:35;;;;;;;11.30;10.10;;;17.90;94.80;;;;;;5047919;28;20200;-78
2021/04/25 09:22:03;;;;;;;12.17;10.87;;;18.10;94.20;;;;;;5053253;28;20227;-79
2021/04/25 09:24:31;;;;;;;11.47;9.93;;;18.40;93.80;;;;;;5066015;28;20213;-79
2021/04/25 09:26:59;;;;;;;14.43;10.87;;;18.30;93.20;;;;;;5056665;28;20207;-79
2021/04/25 09:29:27;;;;;;;12.57;10.90;;;18.40;92.60;;;;;;5052742;28;20203;-79
2021/04/25 09:31:55;;;;;;;12.70;10.70;;;18.20;92.90;;;;;;5059220;28;20227;-79
2021/04/25 09:34:27;;;;;;;11.83;10.60;;;18.50;92.40;;;;;;5059494;28;20204;-79
2021/04/25 09:36:55;;;;;;;19.53;11.17;;;18.50;91.60;;;;;;5056961;28;20199;-80
2021/04/25 09:39:22;;;;;;;10.63;9.20;;;18.00;90.70;;;;;;5058092;28;20207;-79
2021/04/25 09:41:50;;;;;;;14.37;10.87;;;18.00;92.60;;;;;;5045232;28;20278;-78
2021/04/25 09:44:30;;;;;;;13.10;11.13;;;17.80;91.60;;;;;;5060020;28;20268;-79
2021/04/25 09:47:01;;;;;;;14.80;11.40;;;17.70;92.30;;;;;;5049221;28;20671;-77
2021/04/25 09:49:40;;;;;;;11.20;10.00;;;17.50;92.50;;;;;;5056932;28;20558;-79
2021/04/25 09:52:08;;;;;;;14.53;10.63;;;17.60;92.30;;;;;;5054281;28;20224;-79
2021/04/25 09:54:35;;;;;;;12.70;10.97;;;17.30;91.70;;;;;;5054379;28;20198;-80
2021/04/25 09:57:02;;;;;;;13.33;10.73;;;17.60;91.70;;;;;;5045551;28;20205;-79
2021/04/25 09:59:29;;;;;;;12.50;10.60;;;17.50;91.40;;;;;;5058069;28;20279;-79
2021/04/25 10:02:06;;;;;;;14.03;10.40;;;17.50;92.70;;;;;;5052962;28;20688;-80
2021/04/25 10:04:34;;;;;;;11.03;8.10;;;17.00;91.90;;;;;;5048479;28;20285;-78
2021/04/25 10:07:03;;;;;;;10.80;8.40;;;17.20;92.60;;;;;;5051093;28;20303;-78
2021/04/25 10:09:30;;;;;;;11.93;7.80;;;17.30;92.80;;;;;;5058503;28;20205;-80
2021/04/25 10:11:59;;;;;;;11.47;8.23;;;17.20;92.50;;;;;;5057674;28;20279;-80
2021/04/25 10:14:27;;;;;;;13.27;10.17;;;17.30;93.10;;;;;;5060250;28;20196;-80
2021/04/25 10:16:53;;;;;;;14.30;9.57;;;17.00;92.30;;;;;;5061208;28;20196;-80
2021/04/25 10:19:20;;;;;;;11.97;8.87;;;17.00;93.40;;;;;;5054036;28;20573;-78
2021/04/25 10:21:46;;;;;;;12.00;9.60;;;16.80;92.50;;;;;;5047453;28;20277;-79
2021/04/25 10:24:17;;;;;;;11.37;8.53;;;16.80;93.20;;;;;;5058631;28;20192;-79
2021/04/25 10:26:53;;;;;;;10.40;8.10;;;17.00;92.20;;;;;;5060016;28;20245;-79
2021/04/25 10:29:25;;;;;;;11.03;7.93;;;16.70;92.20;;;;;;5057437;28;20207;-80
2021/04/25 10:31:59;;;;;;;14.63;9.53;;;16.70;92.90;;;;;;5063293;28;20597;-80
2021/04/25 10:34:26;;;;;;;10.80;7.87;;;16.60;91.60;;;;;;5058774;28;20213;-80
2021/04/25 10:37:03;;;;;;;14.03;8.50;;;16.70;93.10;;;;;;5053751;28;20610;-78
2021/04/25 10:39:38;;;;;;;14.43;9.87;;;16.50;93.00;;;;;;5059490;28;20196;-78
2021/04/25 10:42:28;;;;;;;14.57;9.47;;;16.20;93.30;;;;;;5051737;28;20587;-78
2021/04/25 10:45:17;;;;;;;11.20;8.80;;;16.40;93.30;;;;;;5055126;28;20209;-80
2021/04/25 10:47:46;;;;;;;9.80;7.60;;;16.60;93.30;;;;;;5061455;28;20240;-78
2021/04/25 10:50:42;;;;;;;12.07;8.87;;;16.60;93.80;;;;;;5066164;28;20241;-77
2021/04/25 10:53:26;;;;;;;13.70;9.23;;;16.60;93.50;;;;;;5046739;28;20207;-78
2021/04/25 10:58:47;;;;;;;13.47;9.57;;;16.50;94.00;;;;;;5132170;27;20665;-78
2021/04/25 11:01:46;;;;;;;12.97;8.43;;;16.30;94.00;;;;;;5131680;28;20215;-78
2021/04/25 11:04:13;;;;;;;10.87;7.93;;;16.40;93.40;;;;;;5120432;28;20735;-77
2021/04/25 11:06:41;;;;;;;8.77;7.20;;;16.50;93.20;;;;;;5123423;28;20269;-77
2021/04/25 11:09:08;;;;;;;11.37;8.27;;;16.60;93.20;;;;;;5125376;27;20194;-77
2021/04/25 11:11:35;;;;;;;11.17;7.37;;;16.80;93.50;;;;;;5129273;28;20225;-77
2021/04/25 11:14:03;;;;;;;9.90;7.60;;;16.80;93.00;;;;;;5124888;28;20192;-77
2021/04/25 11:16:31;;;;;;;9.53;7.13;;;16.80;92.40;;;;;;5115538;27;20186;-77
2021/04/25 11:19:00;;;;;;;14.50;8.47;;;16.60;91.90;;;;;;5123280;27;20685;-77
2021/04/25 11:21:54;;;;;;;10.43;8.47;;;16.40;92.40;;;;;;5120767;27;20359;-77
2021/04/25 11:24:39;;;;;;;12.77;8.47;;;15.90;92.60;;;;;;5122315;27;20276;-78
2021/04/25 11:27:07;;;;;;;11.30;7.77;;;15.80;93.00;;;;;;5121669;27;20188;-78
2021/04/25 11:29:53;;;;;;;10.07;8.80;;;15.80;92.90;;;;;;5116378;27;20697;-77
2021/04/25 11:32:26;;;;;;;13.73;10.10;;;15.90;93.20;;;;;;5111473;28;20346;-77
2021/04/25 11:34:58;;;;;;;11.43;9.63;;;15.80;93.00;;;;;;5114770;28;20244;-78
2021/04/25 11:37:25;;;;;;;11.97;9.80;;;15.70;91.90;;;;;;5117222;27;20216;-77
2021/04/25 11:39:54;;;;;;;11.50;9.17;;;15.60;92.50;;;;;;5113938;28;20246;-77
2021/04/25 11:42:29;;;;;;;12.47;8.80;;;15.70;92.20;;;;;;5115110;28;20235;-75
2021/04/25 11:44:58;;;;;;;10.23;8.50;;;15.80;92.50;;;;;;5114449;28;20185;-77
2021/04/25 11:47:28;;;;;;;12.50;9.50;;;15.80;91.80;;;;;;5113632;28;20681;-77
2021/04/25 11:49:55;;;;;;;11.70;9.33;;;15.80;91.00;;;;;;5117721;27;20950;-77
2021/04/25 11:52:23;;;;;;;10.07;9.00;;;15.90;90.90;;;;;;5113336;28;20220;-77
2021/04/25 11:55:03;;;;;;;9.63;8.30;;;15.90;90.80;;;;;;5114255;28;20198;-77
2021/04/25 11:57:31;;;;;;;12.00;9.70;;;15.80;91.20;;;;;;5113997;28;20216;-77
2021/04/25 12:00:00;;;;;;;12.53;8.37;;;15.90;91.90;;;;;;5114473;28;20247;-77
2021/04/25 12:02:27;;;;;;;12.97;10.87;;;16.00;91.40;;;;;;5121282;28;20684;-78
2021/04/25 12:04:55;;;;;;;11.23;9.37;;;15.90;89.50;;;;;;5124404;28;20241;-78
2021/04/25 12:07:33;;;;;;;9.83;8.57;;;15.90;91.40;;;;;;5126084;28;20192;-77
2021/04/25 12:10:00;;;;;;;10.53;8.83;;;15.70;91.80;;;;;;5118074;28;20884;-77
2021/04/25 12:12:27;;;;;;;9.97;8.43;;;15.70;91.40;;;;;;5110523;28;20295;-77
2021/04/25 12:15:02;;;;;;;9.13;8.23;;;15.70;91.30;;;;;;5105772;28;20638;-78
2021/04/25 12:17:30;;;;;;;9.07;7.70;;;15.80;90.60;;;;;;5113025;28;20216;-77
2021/04/25 12:19:56;;;;;;;10.20;8.30;;;15.90;89.30;;;;;;5117820;28;20205;-78
2021/04/25 12:22:23;;;;;;;12.30;8.40;;;15.80;89.70;;;;;;5110970;28;20467;-77
2021/04/25 12:24:53;;;;;;;10.37;8.40;;;15.90;90.10;;;;;;5110406;28;20258;-76
2021/04/25 12:27:20;;;;;;;9.30;8.30;;;15.80;89.80;;;;;;5109442;28;20546;-78
2021/04/25 12:29:48;;;;;;;8.17;6.97;;;15.80;89.10;;;;;;5103737;27;20255;-78
2021/04/25 12:32:19;;;;;;;8.77;7.83;;;15.80;90.20;;;;;;5109860;28;20236;-78
2021/04/25 12:34:56;;;;;;;9.73;7.93;;;15.90;90.60;;;;;;5115482;28;20200;-77
2021/04/25 12:37:38;;;;;;;11.07;8.40;;;15.90;90.20;;;;;;5118615;27;20201;-76
2021/04/25 12:40:06;;;;;;;8.87;7.97;;;15.80;90.00;;;;;;5115643;28;20196;-78
2021/04/25 12:42:33;;;;;;;8.43;7.50;;;15.80;90.30;;;;;;5122018;28;20212;-78
2021/04/25 12:44:59;;;;;;;8.83;7.40;;;15.90;89.80;;;;;;5112123;28;20700;-78
2021/04/25 12:47:30;;;;;;;8.97;7.83;;;15.70;90.30;;;;;;5114102;28;20276;-78
2021/04/25 12:49:57;;;;;;;9.57;7.33;;;15.90;90.00;;;;;;5113897;28;20213;-78
2021/04/25 12:52:35;;;;;;;8.93;7.00;;;16.10;90.30;;;;;;5110182;28;20217;-77
2021/04/25 12:55:02;;;;;;;7.90;7.10;;;16.00;87.50;;;;;;5114334;28;20208;-78
2021/04/25 12:57:29;;;;;;;11.97;7.87;;;16.00;88.20;;;;;;5117729;28;20231;-78
2021/04/25 12:59:55;;;;;;;8.40;7.30;;;16.00;87.20;;;;;;5120813;28;20222;-77
2021/04/25 13:02:30;;;;;;;7.00;6.30;;;16.00;87.20;;;;;;5117668;28;20271;-78
2021/04/25 13:05:04;;;;;;;7.27;6.50;;;16.00;88.20;;;;;;5112954;28;20550;-78
2021/04/25 13:07:39;;;;;;;6.50;5.90;;;16.10;85.40;;;;;;5118207;28;20194;-77
2021/04/25 13:10:18;;;;;;;6.80;6.20;;;16.20;86.10;;;;;;5104444;28;20274;-78
2021/04/25 13:12:46;;;;;;;8.17;6.40;;;16.20;86.30;;;;;;5118495;28;20243;-78
2021/04/25 13:15:17;;;;;;;7.73;6.70;;;16.10;83.70;;;;;;5126046;28;20228;-78
2021/04/25 13:17:52;;;;;;;7.97;6.90;;;16.00;84.90;;;;;;5115446;28;20214;-78
2021/04/25 13:20:28;;;;;;;7.60;6.80;;;16.00;84.80;;;;;;5110466;28;20228;-78
2021/04/25 13:22:57;;;;;;;8.67;6.50;;;15.90;83.30;;;;;;5115546;28;20201;-78
2021/04/25 13:25:26;;;;;;;7.13;6.43;;;16.00;81.60;;;;;;5105607;28;20212;-78